Data for 11/09/2013

Time Sea-Level Adjusted Pressure Absolute Pressure Temperature Relative Humidity Dew Point   
(mb) (inHg) (mb) (inHg) (C) (F) (%) (C) (F)
00:05 1019 30.09 849 25.07 2.3 36.1 55 -5.8 21.5
00:10 1019 30.09 849 25.07 1.8 35.3 57 -5.7 21.7
00:15 1019 30.09 849 25.07 1.6 34.9 58 -5.9 21.4
00:20 1020 30.12 849 25.07 1.6 34.8 58 -5.8 21.6
00:25 1020 30.12 849 25.07 1.6 34.9 57 -5.9 21.3
00:30 1020 30.12 849 25.07 1.8 35.3 56 -6 21.2
00:35 1020 30.12 849 25.07 1.9 35.4 56 -6 21.2
00:40 1020 30.12 849 25.07 1.8 35.2 56 -6 21.3
00:45 1020 30.12 849 25.07 1.8 35.2 56 -6 21.2
00:50 1020 30.12 849 25.07 1.8 35.2 57 -5.9 21.3
00:55 1020 30.12 849 25.07 1.7 35.1 56 -6 21.1
01:00 1020 30.12 849 25.07 1.8 35.2 56 -6.1 21
01:05 1020 30.12 849 25.07 1.9 35.4 55 -6.2 20.9
01:10 1020 30.12 849 25.07 1.9 35.5 56 -6 21.2
01:15 1020 30.12 849 25.07 2 35.5 56 -5.9 21.3
01:20 1020 30.12 850 25.1 1.9 35.4 57 -5.8 21.5
01:25 1020 30.12 850 25.1 1.7 35.1 56 -6 21.1
01:30 1020 30.12 850 25.1 1.7 35 57 -6 21.1
01:35 1020 30.12 850 25.1 1.6 34.9 57 -6.1 21
01:40 1020 30.12 850 25.1 1.6 34.9 55 -6.4 20.5
01:45 1020 30.12 850 25.1 1.8 35.3 54 -6.5 20.3
01:50 1020 30.12 850 25.1 1.9 35.4 54 -6.4 20.5
01:55 1020 30.12 850 25.1 1.9 35.4 54 -6.5 20.3
02:00 1021 30.15 850 25.1 1.9 35.5 54 -6.4 20.5
02:05 1021 30.15 850 25.1 1.9 35.5 55 -6.2 20.8
02:10 1021 30.15 850 25.1 1.9 35.5 54 -6.4 20.5
02:15 1021 30.15 850 25.1 2 35.6 54 -6.4 20.5
02:20 1021 30.15 850 25.1 1.9 35.5 53 -6.7 20
02:25 1021 30.15 850 25.1 2 35.5 52 -6.8 19.8
02:30 1020 30.12 850 25.1 2 35.6 52 -6.9 19.5
02:35 1020 30.12 850 25.1 2.1 35.8 51 -7 19.3
02:40 1020 30.12 850 25.1 2.1 35.8 51 -6.9 19.6
02:45 1020 30.12 850 25.1 2.1 35.9 51 -6.9 19.7
02:50 1021 30.15 850 25.1 2.1 35.8 52 -6.8 19.7
02:55 1021 30.15 850 25.1 2.1 35.7 51 -6.9 19.5
03:00 1021 30.15 850 25.1 2.1 35.8 52 -6.8 19.8
03:05 1021 30.15 850 25.1 2.1 35.7 52 -6.7 19.9
03:10 1021 30.15 850 25.1 2 35.6 52 -6.8 19.8
03:15 1021 30.15 850 25.1 2 35.6 53 -6.6 20.1
03:20 1021 30.15 850 25.1 1.9 35.4 54 -6.5 20.3
03:25 1021 30.15 850 25.1 1.9 35.4 53 -6.6 20.1
03:30 1021 30.15 850 25.1 1.9 35.4 53 -6.6 20
03:35 1021 30.15 850 25.1 1.9 35.3 54 -6.6 20.1
03:40 1021 30.15 850 25.1 1.8 35.3 53 -6.7 19.9
03:45 1021 30.15 850 25.1 1.9 35.4 53 -6.8 19.8
03:50 1021 30.15 850 25.1 1.9 35.4 53 -6.8 19.8
03:55 1021 30.15 850 25.1 1.8 35.2 54 -6.6 20
04:00 1021 30.15 850 25.1 1.7 35 54 -6.8 19.8
04:05 1021 30.15 850 25.1 1.7 35 54 -6.8 19.8
04:10 1021 30.15 850 25.1 1.6 34.9 55 -6.6 20.2
04:15 1021 30.15 850 25.1 1.5 34.7 55 -6.7 19.9
04:20 1021 30.15 850 25.1 1.5 34.6 55 -6.7 19.9
04:25 1021 30.15 850 25.1 1.5 34.6 54 -6.8 19.8
04:30 1021 30.15 850 25.1 1.5 34.7 53 -6.9 19.5
04:35 1021 30.15 850 25.1 1.6 34.9 53 -6.9 19.6
04:40 1021 30.15 850 25.1 1.6 34.9 53 -6.9 19.6
04:45 1021 30.15 850 25.1 1.5 34.7 54 -6.8 19.8
04:50 1021 30.15 850 25.1 1.4 34.6 55 -6.7 20
04:55 1021 30.15 850 25.1 1.4 34.4 55 -6.7 19.9
05:00 1021 30.15 850 25.1 1.2 34.2 56 -6.6 20
05:05 1021 30.15 851 25.13 1.2 34.1 56 -6.6 20.1
05:10 1021 30.15 851 25.13 1.1 34 56 -6.7 20
05:15 1021 30.15 851 25.13 1 33.9 56 -6.8 19.7
05:20 1021 30.15 851 25.13 1 33.8 56 -6.8 19.7
05:25 1021 30.15 851 25.13 0.9 33.7 56 -6.9 19.6
05:30 1022 30.18 851 25.13 1 33.7 56 -6.9 19.6
05:35 1022 30.18 851 25.13 0.9 33.7 56 -6.9 19.5
05:40 1022 30.18 851 25.13 0.9 33.6 56 -6.8 19.7
05:45 1022 30.18 851 25.13 0.9 33.5 57 -6.8 19.7
05:50 1022 30.18 851 25.13 0.7 33.3 58 -6.6 20.2
05:55 1022 30.18 851 25.13 0.4 32.7 60 -6.5 20.3
06:00 1022 30.18 851 25.13 0 32.1 61 -6.6 20.1
06:05 1022 30.18 851 25.13 -0.1 31.7 63 -6.4 20.5
06:10 1022 30.18 851 25.13 -0.3 31.4 61 -6.9 19.5
06:15 1022 30.18 851 25.13 0.1 32.2 59 -7 19.4
06:20 1022 30.18 851 25.13 0.3 32.6 60 -6.6 20.2
06:25 1022 30.18 851 25.13 0.1 32.2 61 -6.6 20.1
06:30 1022 30.18 851 25.13 0.1 32.2 61 -6.5 20.3
06:35 1022 30.18 851 25.13 0.1 32.1 61 -6.6 20.1
06:40 1022 30.18 851 25.13 0.2 32.4 60 -6.7 19.9
06:45 1022 30.18 851 25.13 0.4 32.6 59 -6.7 19.9
06:50 1022 30.18 851 25.13 0.5 32.9 57 -7.1 19.3
06:55 1022 30.18 851 25.13 0.6 33 56 -7.2 19.1
07:00 1022 30.18 851 25.13 0.6 33.1 57 -6.9 19.5
07:05 1022 30.18 851 25.13 0.4 32.8 60 -6.5 20.4
07:10 1022 30.18 851 25.13 0.1 32.3 62 -6.3 20.6
07:15 1022 30.18 851 25.13 -0 31.9 62 -6.6 20.2
07:20 1022 30.18 851 25.13 0 32.1 61 -6.7 19.9
07:25 1022 30.18 851 25.13 0.1 32.2 61 -6.6 20
07:30 1022 30.18 851 25.13 0 32 62 -6.5 20.3
07:35 1022 30.18 851 25.13 -0.1 31.7 64 -6.2 20.9
07:40 1022 30.18 851 25.13 -0.7 30.8 66 -6.2 20.9
07:45 1022 30.18 851 25.13 -0.9 30.3 67 -6.3 20.7
07:50 1022 30.18 851 25.13 -1 30.2 68 -6.2 20.8
07:55 1022 30.18 851 25.13 -1.1 30.1 68 -6.2 20.8
08:00 1022 30.18 851 25.13 -1.1 30 68 -6.2 20.9
08:05 1022 30.18 851 25.13 -1.2 29.9 69 -6.2 20.9
08:10 1022 30.18 851 25.13 -1.3 29.7 69 -6.2 20.9
08:15 1022 30.18 851 25.13 -1.5 29.4 70 -6.2 20.9
08:20 1022 30.18 851 25.13 -1.6 29.1 71 -6.2 20.8
08:25 1022 30.18 851 25.13 -1.6 29.1 71 -6.2 20.9
08:30 1022 30.18 851 25.13 -1.7 29 71 -6.2 20.8
08:35 1022 30.18 851 25.13 -1.6 29.1 71 -6.3 20.7
08:40 1022 30.18 851 25.13 -1.6 29.1 70 -6.3 20.6
08:45 1022 30.18 851 25.13 -1.4 29.5 69 -6.4 20.4
08:50 1022 30.18 851 25.13 -1.4 29.5 68 -6.5 20.2
08:55 1022 30.18 851 25.13 -1.3 29.6 67 -6.6 20.1
09:00 1022 30.18 851 25.13 -1.2 29.9 67 -6.5 20.3
09:05 1022 30.18 851 25.13 -1.3 29.7 68 -6.5 20.3
09:10 1022 30.18 852 25.16 -1.1 30 66 -6.7 19.9
09:15 1022 30.18 852 25.16 -1 30.2 66 -6.6 20.1
09:20 1022 30.18 851 25.13 -1 30.2 64 -7.1 19.3
09:25 1022 30.18 851 25.13 -0.7 30.7 62 -7.2 19
09:30 1022 30.18 851 25.13 -0.1 31.8 59 -7.2 19.1
09:35 1022 30.18 851 25.13 0.5 32.9 57 -7 19.3
09:40 1022 30.18 851 25.13 0.8 33.5 55 -7.3 18.8
09:45 1022 30.18 852 25.16 1.2 34.2 54 -7.2 19
09:50 1022 30.18 852 25.16 1.6 34.8 52 -7.4 18.7
09:55 1022 30.18 852 25.16 2.1 35.8 51 -7.1 19.2
10:00 1022 30.18 852 25.16 2.1 35.8 51 -6.9 19.5
10:05 1022 30.18 852 25.16 2.9 37.2 49 -6.8 19.7
10:10 1022 30.18 852 25.16 3 37.5 51 -6.1 21
10:15 1022 30.18 852 25.16 3 37.4 49 -6.7 19.9
10:20 1022 30.18 852 25.16 3.2 37.8 49 -6.4 20.4
10:25 1022 30.18 852 25.16 3.4 38.2 46 -7.2 19.1
10:30 1022 30.18 852 25.16 3.8 38.9 46 -6.9 19.6
10:35 1022 30.18 852 25.16 3.9 39 44 -7.3 18.9
10:40 1022 30.18 852 25.16 4.2 39.5 43 -7.3 18.9
10:45 1022 30.18 852 25.16 4.5 40.1 41 -7.7 18.1
10:50 1022 30.18 852 25.16 4.7 40.5 39 -7.9 17.7
10:55 1022 30.18 852 25.16 5 41 40 -7.4 18.6
11:00 1022 30.18 852 25.16 5.3 41.6 39 -7.6 18.4
11:05 1023 30.21 852 25.16 5.6 42 37 -7.9 17.8
11:10 1023 30.21 852 25.16 5.4 41.8 38 -7.7 18.2
11:15 1023 30.21 852 25.16 5.1 41.1 37 -8.5 16.6
11:20 1023 30.21 852 25.16 4.9 40.9 39 -8 17.6
11:25 1023 30.21 852 25.16 4.9 40.8 39 -8.1 17.5
11:30 1023 30.21 852 25.16 4.9 40.8 38 -8.2 17.2
11:35 1023 30.21 852 25.16 5.1 41.1 38 -8.2 17.2
11:40 1023 30.21 852 25.16 5.1 41.2 38 -8.1 17.4
11:45 1023 30.21 852 25.16 4.8 40.6 39 -8.1 17.5
11:50 1023 30.21 852 25.16 4.6 40.3 40 -7.7 18.1
11:55 1023 30.21 852 25.16 4.3 39.7 41 -7.9 17.8
12:00 1023 30.21 852 25.16 4.6 40.3 39 -8.1 17.5
12:05 1023 30.21 852 25.16 4.9 40.8 39 -8.1 17.5
12:10 1023 30.21 852 25.16 5.2 41.4 37 -8.3 17.1
12:15 1023 30.21 852 25.16 5.2 41.4 37 -8.3 17.1
12:20 1023 30.21 852 25.16 5.3 41.6 37 -8.1 17.3
12:25 1023 30.21 852 25.16 5.2 41.3 38 -8 17.6
12:30 1023 30.21 852 25.16 5.4 41.8 38 -7.6 18.3
12:35 1023 30.21 852 25.16 5.4 41.8 40 -7.2 19
12:40 1023 30.21 852 25.16 5.1 41.3 41 -7.1 19.3
12:45 1023 30.21 852 25.16 4.5 40.1 42 -7.5 18.6
12:50 1023 30.21 852 25.16 4.8 40.6 42 -7.1 19.2
12:55 1023 30.21 852 25.16 5.1 41.2 38 -7.9 17.8
13:00 1023 30.21 852 25.16 5.8 42.4 37 -7.7 18.2
13:05 1022 30.18 852 25.16 6.2 43.1 36 -7.7 18.2
13:10 1022 30.18 851 25.13 6.3 43.4 37 -7.5 18.5
13:15 1022 30.18 851 25.13 6.1 43 34 -8.7 16.3
13:20 1022 30.18 851 25.13 6.2 43.2 34 -8.6 16.6
13:25 1022 30.18 851 25.13 6.3 43.4 34 -8.3 17.1
13:30 1022 30.18 851 25.13 6.7 44 32 -8.8 16.2
13:35 1022 30.18 851 25.13 7.1 44.7 33 -8.3 17
13:40 1022 30.18 851 25.13 7.2 44.9 33 -8.2 17.3
13:45 1022 30.18 851 25.13 7.2 45 33 -8.1 17.4
13:50 1022 30.18 851 25.13 7.4 45.4 32 -8.1 17.5
13:55 1022 30.18 851 25.13 7.2 44.9 34 -7.6 18.3
14:00 1022 30.18 851 25.13 6.7 44.1 33 -8.3 17.1
14:05 1022 30.18 851 25.13 6 42.8 36 -8 17.7
14:10 1022 30.18 851 25.13 5.7 42.2 36 -8.1 17.4
14:15 1022 30.18 851 25.13 6 42.9 35 -8.4 16.9
14:20 1021 30.15 851 25.13 6.8 44.2 33 -8.3 17
14:25 1021 30.15 851 25.13 6.9 44.4 33 -8.2 17.3
14:30 1021 30.15 851 25.13 7.4 45.2 33 -7.9 17.7
14:35 1021 30.15 851 25.13 7.5 45.5 34 -7.5 18.5
14:40 1021 30.15 851 25.13 7.7 45.8 33 -7.8 18
14:45 1021 30.15 851 25.13 7.3 45.1 34 -7.6 18.4
14:50 1022 30.18 851 25.13 6.2 43.1 38 -7.2 19
14:55 1021 30.15 851 25.13 6.4 43.4 35 -8 17.7
15:00 1021 30.15 851 25.13 6.9 44.5 35 -7.4 18.6
15:05 1021 30.15 851 25.13 7.2 45 34 -7.7 18.1
15:10 1022 30.18 851 25.13 7.3 45.1 37 -6.4 20.4
15:15 1022 30.18 851 25.13 6.6 43.8 35 -7.8 18
15:20 1022 30.18 851 25.13 7.5 45.4 33 -7.7 18.2
15:25 1022 30.18 851 25.13 7.5 45.5 35 -7 19.4
15:30 1022 30.18 851 25.13 7.1 44.7 36 -7.1 19.2
15:35 1022 30.18 851 25.13 7.1 44.7 35 -7.2 19
15:40 1022 30.18 851 25.13 7.6 45.6 34 -7.4 18.7
15:45 1022 30.18 851 25.13 7.9 46.2 34 -6.8 19.7
15:50 1022 30.18 851 25.13 7.8 46.1 34 -7.2 19
15:55 1022 30.18 851 25.13 8 46.4 34 -6.9 19.6
16:00 1022 30.18 851 25.13 7.8 46.1 34 -7.1 19.2
16:05 1022 30.18 851 25.13 7.6 45.6 36 -6.7 20
16:10 1021 30.15 851 25.13 6.8 44.3 37 -7 19.4
16:15 1021 30.15 851 25.13 7 44.5 37 -6.8 19.8
16:20 1022 30.18 851 25.13 6.7 44.1 37 -6.9 19.7
16:25 1021 30.15 851 25.13 6.8 44.2 37 -7 19.4
16:30 1021 30.15 851 25.13 6.9 44.4 38 -6.6 20.1
16:35 1021 30.15 851 25.13 7.3 45.2 35 -7 19.3
16:40 1021 30.15 851 25.13 7 44.6 39 -6.1 21
16:45 1021 30.15 851 25.13 6.6 43.8 38 -6.6 20.1
16:50 1021 30.15 851 25.13 6.4 43.6 38 -6.7 19.9
16:55 1021 30.15 851 25.13 6.6 43.9 38 -6.9 19.7
17:00 1021 30.15 851 25.13 6.3 43.4 40 -6.3 20.7
17:05 1021 30.15 851 25.13 5.9 42.7 41 -6.5 20.3
17:10 1021 30.15 851 25.13 5.8 42.5 40 -6.7 19.9
17:15 1021 30.15 851 25.13 6 42.7 41 -6.3 20.6
17:20 1022 30.18 851 25.13 6 42.8 43 -5.7 21.8
17:25 1021 30.15 851 25.13 5.7 42.3 42 -6.1 21
17:30 1021 30.15 851 25.13 6.1 42.9 41 -6.3 20.7
17:35 1021 30.15 851 25.13 6 42.8 42 -5.9 21.3
17:40 1022 30.18 851 25.13 5.6 42 43 -6 21.2
17:45 1022 30.18 851 25.13 5.3 41.6 44 -6 21.3
17:50 1022 30.18 851 25.13 5.2 41.4 45 -5.9 21.5
17:55 1022 30.18 851 25.13 5.1 41.2 45 -5.9 21.4
18:00 1022 30.18 851 25.13 4.8 40.7 46 -5.9 21.3
18:05 1022 30.18 851 25.13 4.7 40.4 46 -6 21.2
18:10 1021 30.15 851 25.13 4.6 40.3 46 -5.9 21.4
18:15 1021 30.15 851 25.13 4.5 40.2 46 -6 21.2
18:20 1021 30.15 851 25.13 4.5 40.1 47 -5.9 21.3
18:25 1021 30.15 851 25.13 4.4 39.9 48 -5.7 21.7
18:30 1021 30.15 851 25.13 4.2 39.5 49 -5.7 21.7
18:35 1021 30.15 851 25.13 4 39.3 50 -5.6 21.9
18:40 1021 30.15 851 25.13 3.9 39 50 -5.7 21.8
18:45 1021 30.15 851 25.13 3.8 38.8 51 -5.5 22.1
18:50 1021 30.15 851 25.13 3.7 38.6 52 -5.3 22.4
18:55 1021 30.15 851 25.13 3.5 38.2 52 -5.5 22.1
19:00 1022 30.18 851 25.13 3.3 37.9 53 -5.3 22.4
19:05 1022 30.18 851 25.13 3.1 37.6 54 -5.3 22.5
19:10 1022 30.18 851 25.13 3 37.5 55 -5.2 22.6
19:15 1022 30.18 851 25.13 2.7 36.8 56 -5.2 22.6
19:20 1022 30.18 851 25.13 2.4 36.4 56 -5.4 22.3
19:25 1022 30.18 851 25.13 2.2 35.9 58 -5.2 22.7
19:30 1022 30.18 851 25.13 1.6 34.8 60 -5.4 22.4
19:35 1022 30.18 851 25.13 1.2 34.2 61 -5.4 22.3
19:40 1022 30.18 851 25.13 1.1 34 61 -5.6 21.8
19:45 1021 30.15 851 25.13 1.2 34.1 63 -5.2 22.7
19:50 1021 30.15 851 25.13 0.6 33 65 -5.3 22.4
19:55 1021 30.15 851 25.13 0.5 32.9 65 -5.2 22.6
20:00 1021 30.15 850 25.1 0.5 32.8 65 -5.3 22.5
20:05 1021 30.15 850 25.1 0.7 33.3 62 -5.7 21.7
20:10 1021 30.15 850 25.1 1.3 34.3 61 -5.5 22.1
20:15 1021 30.15 850 25.1 1.3 34.4 61 -5.5 22.2
20:20 1021 30.15 850 25.1 1.5 34.6 59 -5.8 21.6
20:25 1021 30.15 850 25.1 1.7 35.1 59 -5.5 22.2
20:30 1021 30.15 850 25.1 1.5 34.7 60 -5.4 22.3
20:35 1021 30.15 850 25.1 1.4 34.6 62 -5.2 22.7
20:40 1021 30.15 850 25.1 1.2 34.1 63 -5.1 22.8
20:45 1021 30.15 850 25.1 1 33.8 63 -5.2 22.7
20:50 1021 30.15 850 25.1 0.8 33.5 64 -5.2 22.7
20:55 1021 30.15 850 25.1 0.7 33.3 65 -5.1 22.8
21:00 1021 30.15 850 25.1 0.7 33.3 65 -5.1 22.8
21:05 1021 30.15 850 25.1 0.8 33.4 65 -5.1 22.8
21:10 1021 30.15 850 25.1 0.9 33.7 64 -5.1 22.8
21:15 1021 30.15 850 25.1 0.9 33.7 64 -5.1 22.9
21:20 1021 30.15 850 25.1 0.8 33.4 65 -5.1 22.9
21:25 1021 30.15 850 25.1 0.8 33.5 65 -5.1 22.8
21:30 1021 30.15 850 25.1 1.5 34.8 60 -5.4 22.3
21:35 1021 30.15 850 25.1 1.7 35.1 60 -5.3 22.4
21:40 1021 30.15 850 25.1 1.9 35.5 59 -5.1 22.8
21:45 1021 30.15 850 25.1 1.9 35.4 60 -5 23.1
21:50 1021 30.15 850 25.1 1.7 35.1 61 -5 23.1
21:55 1021 30.15 850 25.1 1.7 35 62 -4.8 23.4
22:00 1021 30.15 851 25.13 1.4 34.5 63 -4.8 23.3
22:05 1021 30.15 851 25.13 1.2 34.1 64 -4.8 23.4
22:10 1021 30.15 851 25.13 0.9 33.7 66 -4.7 23.5
22:15 1021 30.15 851 25.13 0.7 33.3 66 -4.9 23.2
22:20 1021 30.15 851 25.13 0.7 33.2 66 -4.9 23.1
22:25 1021 30.15 851 25.13 0.7 33.3 67 -4.7 23.5
22:30 1021 30.15 851 25.13 0.8 33.4 66 -4.8 23.4
22:35 1021 30.15 851 25.13 0.9 33.6 66 -4.7 23.5
22:40 1021 30.15 851 25.13 0.9 33.6 66 -4.7 23.6
22:45 1021 30.15 851 25.13 1 33.9 65 -4.8 23.4
22:50 1021 30.15 850 25.1 1.3 34.4 64 -4.8 23.4
22:55 1021 30.15 850 25.1 1.6 34.9 63 -4.6 23.7
23:00 1021 30.15 850 25.1 1.6 34.9 64 -4.5 23.9
23:05 1021 30.15 850 25.1 1.5 34.7 65 -4.3 24.2
23:10 1021 30.15 850 25.1 1.4 34.4 66 -4.3 24.2
23:15 1021 30.15 850 25.1 1.2 34.2 67 -4.3 24.3
23:20 1021 30.15 850 25.1 1.1 33.9 68 -4.2 24.4
23:25 1021 30.15 850 25.1 1 33.8 68 -4.2 24.4
23:30 1021 30.15 850 25.1 1 33.8 67 -4.4 24
23:35 1021 30.15 850 25.1 1.2 34.1 67 -4.4 24.2
23:40 1021 30.15 850 25.1 1.1 34 69 -3.9 25
23:45 1021 30.15 850 25.1 1 33.9 69 -4.1 24.7
23:50 1021 30.15 850 25.1 1.1 34 68 -4.1 24.5
23:55 1021 30.15 850 25.1 1.4 34.6 67 -4.1 24.6
24:00 1021 30.15 850 25.1 1.9 35.5 65 -4 24.8